Condega, Nicaragua

7:27 PM CST on September 02, 2014 (GMT -0600)
Jinotega | Change Station
CLOSE
Current Station
Airport
Location: Jinotega,
Elevation: 3228 ft
Nearby Weather Stations

Elev 3228 ft 13.14 °N, 86.02 °W | Updated 4 hours ago

Mostly Cloudy
Mostly Cloudy
79 °F
Feels Like 79 °F
N
0
Wind Variable Wind from North

Today
High -- | Low -- °F
--% Chance of Precip.
Yesterday
High -- | Low -- °F
Precip. -- in
5:34 AM 5:55 PM
First Quarter, 57% visible
Pressure 29.83 in
Visibility 6.2 miles
Clouds Mostly Cloudy 2000 ft
Dew Point 64 °F
Humidity 61%
Rainfall 0.00 in
Snow Depth Not available.
UV 5 out of 12
Pollen Not available.
Air Quality Not available.
Flu Activity Not available.
METAR MNJG 022100Z 00000KT 9999 BKN020 26/18 Q1010

More Conditions Fewer Conditions

Pressure 29.83 in
Visibility 6.2 miles
Clouds Mostly Cloudy 2000 ft
Dew Point 64 °F
Humidity 61%
Rainfall 0.00 in
Snow Depth Not available.
UV 5 out of 12
Pollen Not available.
Air Quality Not available.
Flu Activity Not available.
METAR MNJG 022100Z 00000KT 9999 BKN020 26/18 Q1010

More Conditions Fewer Conditions

10-Day Weather Forecast

Almanac

Astronomy

Sep. 02, 2014 Rise Set
Actual Time 5:34 AM CST 5:55 PM CST
Civil Twilight 5:12 AM CST 6:17 PM CST
Nautical Twilight 4:47 AM CST 6:42 PM CST
Astronomical Twilight 4:22 AM CST 7:07 PM CST
Moon 12:09 PM CST (9/2) 11:58 PM CST (9/2)
Length of Visible Light 13h 04m
Length of Day
12h 21m
Tomorrow will be 0m 43s shorter.
First Quarter, 57% of the Moon is Illuminated
Today
First Quarter
Sep 8
Full
Sep 15
Last Quarter
Sep 24
New
Oct 1
First Quarter

Today's Extremes

Country Highs Country Lows

Community

WunderPhotos

Upload Photos

1,749,826 photos uploaded!

Nearby

Snow Depth

Not available.

Earthquake Activity

City Distance Mag. Time & Date
No recent earthquake activity has been reported nearby.
Minimum magnitude displayed is 2.5.

Coastal Water Temperatures

Place Temperature
No Stations Reporting

Nearby Weather Stations